Time;durP1;ratioP1;P1;durP2;ratioP2;P2;SDS_P1;SDS_P2;PMS_P1;PMS_P2;Temp;Humidity;BMP_temperature;BMP_pressure;BME280_temperature;BME280_humidity;BME280_pressure;Samples;Min_cycle;Max_cycle;Signal;HPM_P1;HPM_P2
2022/11/28 00:02:16;;;;;;;7.20;5.50;;;;;;;;;;4959692;28;20293;-81
2022/11/28 00:04:41;;;;;;;8.93;5.80;;;;;;;;;;4954826;28;20305;-81
2022/11/28 00:07:07;;;;;;;6.60;5.93;;;;;;;;;;4939972;28;20424;-81
2022/11/28 00:09:32;;;;;;;6.23;5.53;;;;;;;;;;4954078;28;20237;-81
2022/11/28 00:12:05;;;;;;;5.97;5.37;;;;;;;;;;4987619;28;20226;-80
2022/11/28 00:14:33;;;;;;;6.07;5.57;;;;;;;;;;4953093;28;20227;-81
2022/11/28 00:16:58;;;;;;;7.90;6.37;;;;;;;;;;4957104;28;20612;-82
2022/11/28 00:19:26;;;;;;;9.17;6.50;;;;;;;;;;4974055;28;20219;-81
2022/11/28 00:21:56;;;;;;;6.90;6.20;;;;;;;;;;4969301;28;20234;-81
2022/11/28 00:24:21;;;;;;;6.27;5.63;;;;;;;;;;4945819;28;20217;-82
2022/11/28 00:26:47;;;;;;;6.00;5.50;;;;;;;;;;4997571;28;20285;-81
2022/11/28 00:29:13;;;;;;;7.67;5.93;;;;;;;;;;4970120;28;20222;-81
2022/11/28 00:31:41;;;;;;;10.30;6.50;;;;;;;;;;4969076;28;20234;-82
2022/11/28 00:34:15;;;;;;;7.50;6.23;;;;;;;;;;4984714;28;20230;-82
2022/11/28 00:36:42;;;;;;;8.13;6.03;;;;;;;;;;4988999;28;20238;-84
2022/11/28 00:39:08;;;;;;;7.20;6.50;;;;;;;;;;4973539;28;20337;-82
2022/11/28 00:41:34;;;;;;;7.17;6.47;;;;;;;;;;4960271;28;20238;-84
2022/11/28 00:43:59;;;;;;;6.97;5.83;;;;;;;;;;4975308;28;20277;-85
2022/11/28 00:46:25;;;;;;;8.47;6.30;;;;;;;;;;4953010;28;20234;-83
2022/11/28 00:48:54;;;;;;;6.83;6.23;;;;;;;;;;4963558;28;20218;-83
2022/11/28 00:51:22;;;;;;;7.00;6.30;;;;;;;;;;4965281;28;20218;-83
2022/11/28 00:53:50;;;;;;;7.73;6.80;;;;;;;;;;4963670;28;20221;-82
2022/11/28 00:56:18;;;;;;;7.27;6.37;;;;;;;;;;4957409;28;20226;-82
2022/11/28 00:58:46;;;;;;;6.90;6.30;;;;;;;;;;4974332;28;20253;-83
2022/11/28 01:01:22;;;;;;;8.97;5.97;;;;;;;;;;4988885;28;20720;-84
2022/11/28 01:03:51;;;;;;;7.00;6.17;;;;;;;;;;4971567;28;20218;-84
2022/11/28 01:06:29;;;;;;;7.07;6.37;;;;;;;;;;4991094;28;20257;-83
2022/11/28 01:08:57;;;;;;;6.97;6.37;;;;;;;;;;4960646;28;20230;-83
2022/11/28 01:11:25;;;;;;;7.43;6.73;;;;;;;;;;4995698;28;20680;-85
2022/11/28 01:13:56;;;;;;;7.87;5.93;;;;;;;;;;4993614;28;20241;-83
2022/11/28 01:16:25;;;;;;;6.70;5.93;;;;;;;;;;4967188;28;20230;-83
2022/11/28 01:18:55;;;;;;;7.90;6.20;;;;;;;;;;4985372;28;20286;-83
2022/11/28 01:21:23;;;;;;;6.30;5.60;;;;;;;;;;5000584;28;20256;-81
2022/11/28 01:23:48;;;;;;;6.33;5.73;;;;;;;;;;4949931;28;20223;-83
2022/11/28 01:26:20;;;;;;;6.97;5.73;;;;;;;;;;4983066;28;20583;-82
2022/11/28 01:28:46;;;;;;;6.20;5.70;;;;;;;;;;4951853;28;20699;-82
2022/11/28 01:31:14;;;;;;;7.10;5.80;;;;;;;;;;4970267;28;20229;-84
2022/11/28 01:33:39;;;;;;;6.57;5.70;;;;;;;;;;4963129;28;20238;-83
2022/11/28 01:36:05;;;;;;;6.50;5.87;;;;;;;;;;4956870;28;20223;-84
2022/11/28 01:38:31;;;;;;;7.57;5.77;;;;;;;;;;4937400;28;20267;-82
2022/11/28 01:41:00;;;;;;;6.67;5.90;;;;;;;;;;4977275;28;20241;-83
2022/11/28 01:43:26;;;;;;;5.87;5.37;;;;;;;;;;4940536;28;20217;-84
2022/11/28 01:45:53;;;;;;;6.43;5.07;;;;;;;;;;4980305;28;20232;-83
2022/11/28 01:48:40;;;;;;;6.73;5.37;;;;;;;;;;4933452;28;20222;-85
2022/11/28 01:51:07;;;;;;;5.50;5.00;;;;;;;;;;4969147;28;20305;-85
2022/11/28 01:53:33;;;;;;;6.27;5.67;;;;;;;;;;4971542;28;20230;-84
2022/11/28 01:56:33;;;;;;;5.63;5.03;;;;;;;;;;4980667;28;20264;-85
2022/11/28 01:59:02;;;;;;;7.07;5.27;;;;;;;;;;4975054;28;20286;-84
2022/11/28 02:01:29;;;;;;;5.80;5.30;;;;;;;;;;4978962;28;20225;-85
2022/11/28 02:03:57;;;;;;;6.33;5.57;;;;;;;;;;5002580;28;20234;-84
2022/11/28 02:06:23;;;;;;;5.97;5.47;;;;;;;;;;4994174;28;20260;-83
2022/11/28 02:08:51;;;;;;;6.00;5.40;;;;;;;;;;4976924;28;20234;-82
2022/11/28 02:11:34;;;;;;;5.60;5.10;;;;;;;;;;4994110;28;20246;-83
2022/11/28 02:14:06;;;;;;;7.10;5.33;;;;;;;;;;4981030;28;20238;-84
2022/11/28 02:16:40;;;;;;;5.93;5.33;;;;;;;;;;4974253;28;20577;-83
2022/11/28 02:19:25;;;;;;;5.33;4.80;;;;;;;;;;4980919;28;20230;-82
2022/11/28 02:22:23;;;;;;;6.50;5.33;;;;;;;;;;4974753;28;20222;-83
2022/11/28 02:25:12;;;;;;;5.00;4.53;;;;;;;;;;4962256;28;20233;-85
2022/11/28 02:28:04;;;;;;;5.83;5.33;;;;;;;;;;4903387;29;20233;-85
2022/11/28 02:30:40;;;;;;;5.90;4.90;;;;;;;;;;4979978;28;20338;-85
2022/11/28 02:33:13;;;;;;;5.70;5.20;;;;;;;;;;4973866;28;20224;-84
2022/11/28 02:35:43;;;;;;;6.30;4.50;;;;;;;;;;4964044;28;20234;-85
2022/11/28 02:38:41;;;;;;;5.20;4.67;;;;;;;;;;4976667;28;20234;-83
2022/11/28 02:41:19;;;;;;;5.20;4.80;;;;;;;;;;4974589;28;20226;-82
2022/11/28 02:44:10;;;;;;;5.17;4.77;;;;;;;;;;4994454;28;20234;-85
2022/11/28 02:46:51;;;;;;;5.17;4.67;;;;;;;;;;4976598;28;20244;-83
2022/11/28 02:49:48;;;;;;;6.17;5.07;;;;;;;;;;4952215;28;20221;-84
2022/11/28 02:52:16;;;;;;;5.00;4.60;;;;;;;;;;4950873;28;20331;-82
2022/11/28 02:54:43;;;;;;;5.87;5.30;;;;;;;;;;4991023;28;20242;-82
2022/11/28 02:57:10;;;;;;;5.83;5.33;;;;;;;;;;4977794;28;20234;-83
2022/11/28 02:59:36;;;;;;;5.30;4.80;;;;;;;;;;4973884;28;20281;-84
2022/11/28 03:02:05;;;;;;;5.20;4.70;;;;;;;;;;4993294;28;20261;-84
2022/11/28 03:04:42;;;;;;;5.90;5.20;;;;;;;;;;4949751;28;20305;-82
2022/11/28 03:07:46;;;;;;;5.30;4.77;;;;;;;;;;4992888;28;20247;-84
2022/11/28 03:10:51;;;;;;;5.17;4.73;;;;;;;;;;4989578;28;20305;-79
2022/11/28 03:14:12;;;;;;;5.00;4.57;;;;;;;;;;4971095;28;20661;-85
2022/11/28 03:16:56;;;;;;;4.80;4.40;;;;;;;;;;4935918;28;20239;-83
2022/11/28 03:19:25;;;;;;;4.63;4.20;;;;;;;;;;4987582;28;20225;-84
2022/11/28 03:21:59;;;;;;;5.20;4.80;;;;;;;;;;5001052;28;20209;-82
2022/11/28 03:24:31;;;;;;;4.80;4.40;;;;;;;;;;5008711;28;20275;-82
2022/11/28 03:26:57;;;;;;;5.17;4.67;;;;;;;;;;4975500;28;20249;-82
2022/11/28 03:29:35;;;;;;;4.93;4.53;;;;;;;;;;5006866;28;20229;-83
2022/11/28 03:32:15;;;;;;;4.77;4.30;;;;;;;;;;5007619;28;20267;-82
2022/11/28 03:34:43;;;;;;;4.97;4.57;;;;;;;;;;4985436;28;20225;-85
2022/11/28 03:37:20;;;;;;;4.77;4.37;;;;;;;;;;5000709;28;20225;-82
2022/11/28 03:39:51;;;;;;;5.20;4.70;;;;;;;;;;5011410;28;20740;-84
2022/11/28 03:42:23;;;;;;;4.47;4.07;;;;;;;;;;4993364;28;20244;-82
2022/11/28 03:44:55;;;;;;;5.37;4.87;;;;;;;;;;4994589;28;20254;-86
2022/11/28 03:47:24;;;;;;;5.20;4.70;;;;;;;;;;5013512;28;20240;-84
2022/11/28 03:49:51;;;;;;;4.33;4.03;;;;;;;;;;4989238;28;20296;-82
2022/11/28 03:52:30;;;;;;;4.67;4.27;;;;;;;;;;5023341;28;20221;-85
2022/11/28 03:55:19;;;;;;;5.17;4.53;;;;;;;;;;5008833;28;20233;-82
2022/11/28 03:57:52;;;;;;;4.83;4.43;;;;;;;;;;5015613;28;20252;-85
2022/11/28 04:00:23;;;;;;;5.77;5.20;;;;;;;;;;4994318;28;20232;-83
2022/11/28 04:03:00;;;;;;;5.10;4.60;;;;;;;;;;4980542;28;20221;-84
2022/11/28 04:05:48;;;;;;;5.23;4.83;;;;;;;;;;4995779;28;20678;-83
2022/11/28 04:08:20;;;;;;;4.93;4.43;;;;;;;;;;4997038;28;20737;-83
2022/11/28 04:11:05;;;;;;;4.73;4.27;;;;;;;;;;5010271;28;20232;-85
2022/11/28 04:13:31;;;;;;;4.77;4.33;;;;;;;;;;4985547;28;20233;-84
2022/11/28 04:16:17;;;;;;;4.67;4.27;;;;;;;;;;4979690;28;21189;-82
2022/11/28 04:18:58;;;;;;;9.43;8.43;;;;;;;;;;4980408;28;20236;-82
2022/11/28 04:21:31;;;;;;;5.93;5.40;;;;;;;;;;4996327;28;20233;-82
2022/11/28 04:24:00;;;;;;;5.43;5.03;;;;;;;;;;4995380;28;20230;-83
2022/11/28 04:26:34;;;;;;;5.13;4.73;;;;;;;;;;4996408;28;20229;-84
2022/11/28 04:29:03;;;;;;;5.13;4.70;;;;;;;;;;4976811;28;20599;-84
2022/11/28 04:31:28;;;;;;;4.97;4.50;;;;;;;;;;5009245;28;20284;-85
2022/11/28 04:33:57;;;;;;;5.80;5.20;;;;;;;;;;4997691;28;20295;-83
2022/11/28 04:36:23;;;;;;;5.67;5.20;;;;;;;;;;4997626;28;20272;-84
2022/11/28 04:38:55;;;;;;;5.20;4.70;;;;;;;;;;5017636;28;20225;-82
2022/11/28 04:41:33;;;;;;;6.00;4.73;;;;;;;;;;5014306;28;20654;-82
2022/11/28 04:44:03;;;;;;;5.93;5.30;;;;;;;;;;4998026;28;20244;-82
2022/11/28 04:46:36;;;;;;;5.57;5.07;;;;;;;;;;4985040;28;20221;-82
2022/11/28 04:49:02;;;;;;;5.07;4.67;;;;;;;;;;4993207;28;20234;-83
2022/11/28 04:51:36;;;;;;;5.67;5.17;;;;;;;;;;4982570;28;20250;-81
2022/11/28 04:54:20;;;;;;;5.37;4.97;;;;;;;;;;4998683;28;20233;-82
2022/11/28 04:56:51;;;;;;;5.80;5.30;;;;;;;;;;4970446;28;20230;-82
2022/11/28 04:59:16;;;;;;;6.27;5.67;;;;;;;;;;4974169;28;20217;-81
2022/11/28 05:01:43;;;;;;;5.87;5.37;;;;;;;;;;5001224;28;20728;-81
2022/11/28 05:04:31;;;;;;;5.40;4.90;;;;;;;;;;5008327;28;20226;-84
2022/11/28 05:07:06;;;;;;;7.53;5.60;;;;;;;;;;4994550;28;20229;-82
2022/11/28 05:09:34;;;;;;;5.73;5.27;;;;;;;;;;4996667;28;20225;-82
2022/11/28 05:12:00;;;;;;;5.90;5.40;;;;;;;;;;5003352;28;20234;-84
2022/11/28 05:14:28;;;;;;;6.17;5.33;;;;;;;;;;5000197;28;20283;-82
2022/11/28 05:16:56;;;;;;;5.70;5.20;;;;;;;;;;4982733;28;20762;-82
2022/11/28 05:19:24;;;;;;;6.80;6.20;;;;;;;;;;4957158;28;20224;-83
2022/11/28 05:21:54;;;;;;;5.90;5.33;;;;;;;;;;4987092;28;20214;-84
2022/11/28 05:24:21;;;;;;;6.10;5.57;;;;;;;;;;5021948;28;20224;-82
2022/11/28 05:26:48;;;;;;;6.17;5.67;;;;;;;;;;4968956;28;20214;-81
2022/11/28 05:29:14;;;;;;;6.60;5.57;;;;;;;;;;4965331;28;20985;-84
2022/11/28 05:31:44;;;;;;;5.87;5.27;;;;;;;;;;4997729;28;20661;-83
2022/11/28 05:34:10;;;;;;;5.97;5.47;;;;;;;;;;5001900;28;20232;-79
2022/11/28 05:36:38;;;;;;;6.17;5.60;;;;;;;;;;4999348;28;20221;-82
2022/11/28 05:39:03;;;;;;;7.07;6.37;;;;;;;;;;4959403;28;20226;-82
2022/11/28 05:41:30;;;;;;;6.30;5.70;;;;;;;;;;4963447;28;20221;-82
2022/11/28 05:43:56;;;;;;;6.20;5.60;;;;;;;;;;4993175;28;20714;-84
2022/11/28 05:46:21;;;;;;;7.07;6.37;;;;;;;;;;4993334;28;20237;-81
2022/11/28 05:48:47;;;;;;;9.50;5.90;;;;;;;;;;4996237;28;20264;-86
2022/11/28 05:51:18;;;;;;;5.77;5.27;;;;;;;;;;4983176;28;20252;-83
2022/11/28 05:53:44;;;;;;;6.97;6.37;;;;;;;;;;4988218;28;20277;-83
2022/11/28 05:56:14;;;;;;;6.73;6.13;;;;;;;;;;5021917;28;20224;-85
2022/11/28 05:58:40;;;;;;;7.10;6.50;;;;;;;;;;4983028;28;20251;-86
2022/11/28 06:01:22;;;;;;;6.43;5.93;;;;;;;;;;5016523;28;20222;-83
2022/11/28 06:03:47;;;;;;;6.63;6.03;;;;;;;;;;4960247;28;20225;-84
2022/11/28 06:06:20;;;;;;;7.03;5.83;;;;;;;;;;4976967;28;20236;-86
2022/11/28 06:08:48;;;;;;;8.00;6.07;;;;;;;;;;4961528;28;20221;-82
2022/11/28 06:11:14;;;;;;;6.93;6.23;;;;;;;;;;4963172;28;20209;-85
2022/11/28 06:13:43;;;;;;;7.37;6.67;;;;;;;;;;4977929;28;20256;-86
2022/11/28 06:16:12;;;;;;;8.50;6.20;;;;;;;;;;4993093;28;20576;-84
2022/11/28 06:18:37;;;;;;;7.73;6.37;;;;;;;;;;4982717;28;20300;-84
2022/11/28 06:21:04;;;;;;;7.33;6.57;;;;;;;;;;4974963;28;20762;-83
2022/11/28 06:23:29;;;;;;;6.40;5.90;;;;;;;;;;4980223;28;20225;-86
2022/11/28 06:25:55;;;;;;;9.60;6.70;;;;;;;;;;5011924;28;20725;-83
2022/11/28 06:28:20;;;;;;;7.07;6.40;;;;;;;;;;4966465;28;20237;-82
2022/11/28 06:30:48;;;;;;;7.43;6.73;;;;;;;;;;5015480;28;20230;-82
2022/11/28 06:33:14;;;;;;;7.00;6.40;;;;;;;;;;4978955;28;20242;-83
2022/11/28 06:35:39;;;;;;;7.67;6.97;;;;;;;;;;4988517;28;20232;-82
2022/11/28 06:38:05;;;;;;;6.80;6.20;;;;;;;;;;4993728;28;20233;-82
2022/11/28 06:40:33;;;;;;;7.40;6.73;;;;;;;;;;4980055;28;20225;-80
2022/11/28 06:42:58;;;;;;;6.80;6.20;;;;;;;;;;5014605;28;20213;-82
2022/11/28 06:45:26;;;;;;;6.97;6.37;;;;;;;;;;4973583;28;20227;-81
2022/11/28 06:48:07;;;;;;;7.40;6.63;;;;;;;;;;4981447;28;20225;-81
2022/11/28 06:50:33;;;;;;;7.20;6.50;;;;;;;;;;4974200;28;20299;-81
2022/11/28 06:53:00;;;;;;;7.63;6.93;;;;;;;;;;4994009;28;20308;-83
2022/11/28 06:58:14;;;;;;;7.17;6.50;;;;;;;;;;4998812;28;20241;-83
2022/11/28 07:00:40;;;;;;;7.70;6.90;;;;;;;;;;4993899;28;20225;-82
2022/11/28 07:03:11;;;;;;;8.23;6.43;;;;;;;;;;5013289;28;20907;-80
2022/11/28 07:05:39;;;;;;;6.83;6.17;;;;;;;;;;4968686;28;20224;-83
2022/11/28 07:08:07;;;;;;;7.27;6.60;;;;;;;;;;4991557;28;20732;-81
2022/11/28 07:10:32;;;;;;;9.47;6.67;;;;;;;;;;4969783;28;20226;-83
2022/11/28 07:12:59;;;;;;;7.47;6.80;;;;;;;;;;4985418;28;20242;-83
2022/11/28 07:15:24;;;;;;;7.83;7.10;;;;;;;;;;5001707;28;20244;-83
2022/11/28 07:17:50;;;;;;;7.07;6.30;;;;;;;;;;5011775;28;20233;-82
2022/11/28 07:20:18;;;;;;;7.43;6.80;;;;;;;;;;4991765;28;20217;-83
2022/11/28 07:22:48;;;;;;;6.97;6.37;;;;;;;;;;4953312;28;20255;-82
2022/11/28 07:25:17;;;;;;;7.50;6.23;;;;;;;;;;4943711;28;20823;-82
2022/11/28 07:27:57;;;;;;;8.70;6.80;;;;;;;;;;4964844;28;20247;-81
2022/11/28 07:30:31;;;;;;;8.30;7.40;;;;;;;;;;4954428;28;20235;-83
2022/11/28 07:33:04;;;;;;;7.60;6.90;;;;;;;;;;4975572;28;20237;-83
2022/11/28 07:35:58;;;;;;;6.77;6.17;;;;;;;;;;4957332;28;20225;-82
2022/11/28 07:38:44;;;;;;;7.60;6.20;;;;;;;;;;4947953;28;20207;-82
2022/11/28 07:41:15;;;;;;;6.40;5.90;;;;;;;;;;4945821;28;20229;-82
2022/11/28 07:43:44;;;;;;;7.23;6.53;;;;;;;;;;4932414;28;20248;-81
2022/11/28 07:46:19;;;;;;;6.70;6.10;;;;;;;;;;4993971;28;20217;-79
2022/11/28 07:48:48;;;;;;;6.60;5.90;;;;;;;;;;5000386;28;20240;-81
2022/11/28 07:51:44;;;;;;;6.40;5.90;;;;;;;;;;4944097;28;20221;-83
2022/11/28 07:55:07;;;;;;;;;;;;;;;;;;;;;
2022/11/28 07:57:43;;;;;;;7.20;6.20;;;;;;;;;;4975631;28;20777;-82
2022/11/28 08:00:09;;;;;;;6.67;6.07;;;;;;;;;;4944871;28;20439;-79
2022/11/28 08:02:38;;;;;;;6.50;5.93;;;;;;;;;;5002291;28;20261;-83
2022/11/28 08:05:06;;;;;;;6.47;5.97;;;;;;;;;;5001839;28;20217;-82
2022/11/28 08:07:32;;;;;;;6.53;5.93;;;;;;;;;;5002999;28;20268;-80
2022/11/28 08:09:58;;;;;;;6.80;6.13;;;;;;;;;;4979199;28;20726;-83
2022/11/28 08:12:23;;;;;;;6.50;5.90;;;;;;;;;;4967360;28;20931;-82
2022/11/28 08:14:57;;;;;;;6.73;6.13;;;;;;;;;;5002817;28;21168;-81
2022/11/28 08:17:23;;;;;;;7.00;6.20;;;;;;;;;;5002310;28;20236;-82
2022/11/28 08:19:53;;;;;;;6.67;6.07;;;;;;;;;;4993374;28;20217;-83
2022/11/28 08:22:19;;;;;;;6.97;6.20;;;;;;;;;;5000529;28;20228;-82
2022/11/28 08:24:47;;;;;;;6.70;6.00;;;;;;;;;;5014667;28;20233;-84
2022/11/28 08:27:15;;;;;;;6.03;5.53;;;;;;;;;;4968733;28;20225;-81
2022/11/28 08:29:47;;;;;;;6.53;5.93;;;;;;;;;;4988238;28;20311;-83
2022/11/28 08:32:12;;;;;;;6.60;6.00;;;;;;;;;;4968231;28;20232;-83
2022/11/28 08:34:38;;;;;;;6.33;5.73;;;;;;;;;;4986753;28;20889;-83
2022/11/28 08:37:04;;;;;;;5.90;5.40;;;;;;;;;;4972327;28;20869;-82
2022/11/28 08:39:29;;;;;;;6.70;6.07;;;;;;;;;;4971719;28;20225;-82
2022/11/28 08:41:58;;;;;;;6.37;5.77;;;;;;;;;;5002319;28;20209;-85
2022/11/28 08:44:25;;;;;;;6.90;6.20;;;;;;;;;;4989750;28;20242;-83
2022/11/28 08:46:58;;;;;;;6.10;5.60;;;;;;;;;;5010119;28;20237;-84
2022/11/28 08:49:26;;;;;;;6.87;5.80;;;;;;;;;;4988783;28;20683;-84
2022/11/28 08:51:52;;;;;;;6.00;5.40;;;;;;;;;;4981321;28;20237;-85
2022/11/28 08:54:17;;;;;;;7.13;5.43;;;;;;;;;;4981881;28;20213;-85
2022/11/28 08:56:45;;;;;;;6.00;5.50;;;;;;;;;;4996039;28;20237;-85
2022/11/28 08:59:13;;;;;;;6.07;5.57;;;;;;;;;;4982695;28;20260;-85
2022/11/28 09:01:39;;;;;;;5.77;5.17;;;;;;;;;;4977586;28;20582;-85
2022/11/28 09:04:04;;;;;;;5.77;5.33;;;;;;;;;;4969073;28;20237;-83
2022/11/28 09:06:32;;;;;;;5.63;5.17;;;;;;;;;;4993808;28;20236;-85
2022/11/28 09:08:58;;;;;;;6.40;4.80;;;;;;;;;;5000514;28;20335;-84
2022/11/28 09:11:46;;;;;;;6.53;5.23;;;;;;;;;;4972493;28;20225;-84
2022/11/28 09:14:25;;;;;;;6.00;5.43;;;;;;;;;;4968265;28;20320;-87
2022/11/28 09:17:06;;;;;;;5.57;5.17;;;;;;;;;;4970875;28;20278;-84
2022/11/28 09:19:56;;;;;;;5.80;5.30;;;;;;;;;;4955766;28;20300;-85
2022/11/28 09:22:24;;;;;;;5.27;4.77;;;;;;;;;;4982481;28;20233;-84
2022/11/28 09:24:50;;;;;;;5.70;5.10;;;;;;;;;;4985615;28;20241;-85
2022/11/28 09:27:16;;;;;;;5.80;5.30;;;;;;;;;;4966832;28;20251;-84
2022/11/28 09:29:41;;;;;;;5.47;4.97;;;;;;;;;;4979317;28;20234;-84
2022/11/28 09:32:07;;;;;;;5.60;5.10;;;;;;;;;;4994774;28;20226;-85
2022/11/28 09:34:33;;;;;;;7.57;5.77;;;;;;;;;;4990454;28;20235;-84
2022/11/28 09:37:04;;;;;;;10.03;9.00;;;;;;;;;;4967175;28;20229;-84
2022/11/28 09:39:37;;;;;;;9.27;8.07;;;;;;;;;;4979893;28;20272;-84
2022/11/28 09:42:15;;;;;;;6.67;5.57;;;;;;;;;;4975330;28;20293;-84
2022/11/28 09:44:44;;;;;;;6.53;5.77;;;;;;;;;;5004481;28;20294;-83
2022/11/28 09:47:29;;;;;;;6.60;6.00;;;;;;;;;;4989792;28;20225;-85
2022/11/28 09:50:01;;;;;;;9.13;7.90;;;;;;;;;;5016258;28;20678;-84
2022/11/28 09:53:07;;;;;;;7.60;5.73;;;;;;;;;;5001740;28;20224;-83
2022/11/28 09:55:52;;;;;;;6.03;5.43;;;;;;;;;;4929870;28;20231;-85
2022/11/28 09:58:25;;;;;;;5.77;5.17;;;;;;;;;;4989839;28;20221;-84
2022/11/28 10:01:17;;;;;;;5.87;5.27;;;;;;;;;;5005781;28;20229;-84
2022/11/28 10:04:14;;;;;;;5.97;5.47;;;;;;;;;;5024567;28;20321;-83
2022/11/28 10:06:59;;;;;;;7.00;5.40;;;;;;;;;;5005624;28;20225;-83
2022/11/28 10:09:43;;;;;;;6.93;6.23;;;;;;;;;;5000567;28;20237;-80
2022/11/28 10:12:36;;;;;;;6.23;5.63;;;;;;;;;;5003936;28;20283;-82
2022/11/28 10:15:11;;;;;;;6.60;5.90;;;;;;;;;;5003867;28;20256;-83
2022/11/28 10:18:15;;;;;;;6.80;6.10;;;;;;;;;;4988939;28;20239;-82
2022/11/28 10:20:45;;;;;;;7.27;6.57;;;;;;;;;;4968015;28;20233;-84
2022/11/28 10:23:22;;;;;;;7.03;6.33;;;;;;;;;;4997701;28;20225;-83
2022/11/28 10:26:26;;;;;;;7.40;6.80;;;;;;;;;;4998187;28;20232;-83
2022/11/28 10:28:58;;;;;;;7.60;6.90;;;;;;;;;;4983996;28;20217;-81
2022/11/28 10:31:26;;;;;;;7.97;6.80;;;;;;;;;;5002474;28;20229;-81
2022/11/28 10:33:56;;;;;;;8.27;7.27;;;;;;;;;;5017664;28;20292;-83
2022/11/28 10:36:36;;;;;;;7.53;6.87;;;;;;;;;;5000447;28;20294;-83
2022/11/28 10:39:09;;;;;;;8.13;7.33;;;;;;;;;;5001649;28;20230;-81
2022/11/28 10:42:10;;;;;;;7.90;7.10;;;;;;;;;;4994956;28;20224;-82
2022/11/28 10:44:55;;;;;;;8.93;7.30;;;;;;;;;;5000489;28;20707;-81
2022/11/28 10:47:29;;;;;;;8.10;7.30;;;;;;;;;;4983518;28;20240;-82
2022/11/28 10:50:16;;;;;;;8.50;7.70;;;;;;;;;;4999205;28;20766;-81
2022/11/28 10:52:43;;;;;;;7.80;7.10;;;;;;;;;;4993882;28;20245;-81
2022/11/28 10:55:30;;;;;;;7.47;6.87;;;;;;;;;;4999180;28;20291;-81
2022/11/28 10:58:11;;;;;;;8.67;7.13;;;;;;;;;;5014534;28;20232;-81
2022/11/28 11:00:36;;;;;;;9.23;7.20;;;;;;;;;;4999649;28;20225;-82
2022/11/28 11:03:09;;;;;;;7.73;6.63;;;;;;;;;;4981614;28;20230;-83
2022/11/28 11:05:35;;;;;;;8.73;7.90;;;;;;;;;;4997167;28;20673;-82
2022/11/28 11:08:22;;;;;;;7.93;6.83;;;;;;;;;;4985241;28;20230;-82
2022/11/28 11:11:06;;;;;;;7.63;6.93;;;;;;;;;;4998995;28;20228;-80
2022/11/28 11:13:34;;;;;;;8.37;7.10;;;;;;;;;;4973637;28;20612;-81
2022/11/28 11:16:07;;;;;;;10.70;7.27;;;;;;;;;;4978304;28;20731;-81
2022/11/28 11:18:36;;;;;;;9.10;6.90;;;;;;;;;;4993772;28;20308;-80
2022/11/28 11:21:06;;;;;;;7.90;7.20;;;;;;;;;;4968133;28;20233;-82
2022/11/28 11:23:32;;;;;;;7.50;6.80;;;;;;;;;;4979389;28;20230;-80
2022/11/28 11:25:57;;;;;;;8.70;7.20;;;;;;;;;;4964146;28;20236;-82
2022/11/28 11:28:46;;;;;;;8.07;7.27;;;;;;;;;;4970964;28;20376;-80
2022/11/28 11:31:14;;;;;;;8.40;6.97;;;;;;;;;;4989176;28;20537;-81
2022/11/28 11:33:40;;;;;;;11.60;7.60;;;;;;;;;;4982805;28;20230;-81
2022/11/28 11:36:46;;;;;;;7.97;7.20;;;;;;;;;;4985616;28;20228;-81
2022/11/28 11:39:13;;;;;;;9.37;7.00;;;;;;;;;;4987183;28;20270;-81
2022/11/28 11:41:43;;;;;;;7.83;7.07;;;;;;;;;;5001108;28;20679;-80
2022/11/28 11:44:14;;;;;;;8.23;7.43;;;;;;;;;;4984056;28;20284;-81
2022/11/28 11:46:59;;;;;;;8.30;7.47;;;;;;;;;;5012255;28;20236;-82
2022/11/28 11:49:42;;;;;;;7.83;7.00;;;;;;;;;;4989014;28;20228;-83
2022/11/28 11:52:11;;;;;;;9.27;7.43;;;;;;;;;;4975803;28;20240;-81
2022/11/28 11:54:40;;;;;;;9.83;8.00;;;;;;;;;;5009381;28;20221;-80
2022/11/28 11:57:08;;;;;;;10.33;8.10;;;;;;;;;;5022185;28;20237;-82
2022/11/28 11:59:48;;;;;;;8.10;7.30;;;;;;;;;;4998813;28;20277;-82
2022/11/28 12:02:22;;;;;;;8.40;7.60;;;;;;;;;;4994976;28;20227;-81
2022/11/28 12:04:50;;;;;;;9.03;7.57;;;;;;;;;;5005305;28;20240;-82
2022/11/28 12:07:21;;;;;;;9.20;7.87;;;;;;;;;;4976120;28;20237;-82
2022/11/28 12:09:47;;;;;;;8.87;7.97;;;;;;;;;;5001716;28;20236;-82
2022/11/28 12:12:23;;;;;;;8.33;7.63;;;;;;;;;;5000553;28;20244;-79
2022/11/28 12:15:01;;;;;;;8.37;7.57;;;;;;;;;;4976142;28;20232;-82
2022/11/28 12:18:06;;;;;;;9.43;7.97;;;;;;;;;;4984036;28;20267;-81
2022/11/28 12:20:46;;;;;;;8.60;7.80;;;;;;;;;;5002166;28;20300;-82
2022/11/28 12:23:33;;;;;;;8.73;7.90;;;;;;;;;;5002907;28;20223;-81
2022/11/28 12:26:19;;;;;;;8.20;7.40;;;;;;;;;;5016047;28;20225;-81
2022/11/28 12:29:11;;;;;;;8.50;7.70;;;;;;;;;;4990138;28;20240;-82
2022/11/28 12:31:56;;;;;;;8.77;7.87;;;;;;;;;;4967832;28;20232;-81
2022/11/28 12:34:37;;;;;;;8.70;7.80;;;;;;;;;;5011045;28;20224;-82
2022/11/28 12:37:27;;;;;;;8.83;8.00;;;;;;;;;;4983068;28;20320;-82
2022/11/28 12:40:00;;;;;;;9.07;8.17;;;;;;;;;;4997738;28;20684;-81
2022/11/28 12:42:47;;;;;;;8.83;8.03;;;;;;;;;;4975107;28;20236;-82
2022/11/28 12:45:30;;;;;;;8.60;7.80;;;;;;;;;;4966686;28;20233;-83
2022/11/28 12:48:16;;;;;;;9.13;7.97;;;;;;;;;;4954555;28;20854;-80
2022/11/28 12:50:47;;;;;;;9.53;8.53;;;;;;;;;;4981332;28;20228;-79
2022/11/28 12:53:35;;;;;;;9.60;8.63;;;;;;;;;;4984007;28;20225;-81
2022/11/28 12:56:11;;;;;;;8.37;7.53;;;;;;;;;;4955913;28;20225;-80
2022/11/28 12:59:36;;;;;;;9.37;8.37;;;;;;;;;;4991342;28;20225;-82
2022/11/28 13:02:28;;;;;;;9.37;8.43;;;;;;;;;;4920178;28;20722;-80
2022/11/28 13:05:09;;;;;;;9.00;7.87;;;;;;;;;;4999406;28;20256;-82
2022/11/28 13:07:53;;;;;;;11.77;9.40;;;;;;;;;;4981791;28;20238;-81
2022/11/28 13:10:28;;;;;;;9.30;8.40;;;;;;;;;;5007210;28;20226;-80
2022/11/28 13:13:02;;;;;;;8.63;7.83;;;;;;;;;;5008245;28;20241;-80
2022/11/28 13:16:01;;;;;;;9.73;8.83;;;;;;;;;;5004121;28;20304;-81
2022/11/28 13:18:43;;;;;;;8.87;8.00;;;;;;;;;;5005678;28;20871;-80
2022/11/28 13:21:23;;;;;;;9.10;8.17;;;;;;;;;;5007123;28;20297;-81
2022/11/28 13:23:52;;;;;;;8.87;8.17;;;;;;;;;;5003436;28;20236;-81
2022/11/28 13:26:35;;;;;;;9.03;8.07;;;;;;;;;;5002028;28;20238;-80
2022/11/28 13:29:07;;;;;;;8.73;7.83;;;;;;;;;;5001726;28;20225;-81
2022/11/28 13:31:47;;;;;;;9.10;8.30;;;;;;;;;;5001018;28;20224;-81
2022/11/28 13:34:18;;;;;;;12.33;8.20;;;;;;;;;;4998927;28;20253;-81
2022/11/28 13:37:19;;;;;;;8.73;7.93;;;;;;;;;;4982121;28;20240;-80
2022/11/28 13:40:00;;;;;;;9.00;8.10;;;;;;;;;;4994362;28;20229;-82
2022/11/28 13:42:34;;;;;;;9.10;8.17;;;;;;;;;;4984117;28;20304;-82
2022/11/28 13:45:23;;;;;;;9.13;8.07;;;;;;;;;;5011375;28;20228;-80
2022/11/28 13:47:53;;;;;;;9.43;8.37;;;;;;;;;;4976833;28;20725;-81
2022/11/28 13:50:24;;;;;;;8.87;8.07;;;;;;;;;;4998628;28;20237;-81
2022/11/28 13:53:20;;;;;;;10.23;8.40;;;;;;;;;;5000000;28;20233;-81
2022/11/28 13:55:49;;;;;;;11.40;8.27;;;;;;;;;;4971481;28;20225;-81
2022/11/28 13:58:24;;;;;;;9.03;8.17;;;;;;;;;;4952018;28;20221;-80
2022/11/28 14:01:12;;;;;;;9.40;8.40;;;;;;;;;;5000478;28;20228;-81
2022/11/28 14:03:47;;;;;;;10.53;8.03;;;;;;;;;;4997704;28;20280;-82
2022/11/28 14:06:34;;;;;;;9.73;7.70;;;;;;;;;;4996263;28;20256;-83
2022/11/28 14:09:15;;;;;;;9.33;8.00;;;;;;;;;;4981086;28;20224;-82
2022/11/28 14:11:48;;;;;;;9.57;8.13;;;;;;;;;;4997427;28;20217;-83
2022/11/28 14:14:47;;;;;;;9.13;8.07;;;;;;;;;;4997639;28;20287;-82
2022/11/28 14:17:18;;;;;;;9.53;7.67;;;;;;;;;;4980596;28;20241;-84
2022/11/28 14:19:56;;;;;;;9.33;8.30;;;;;;;;;;4983588;28;20319;-84
2022/11/28 14:23:10;;;;;;;9.57;8.30;;;;;;;;;;4982747;28;25562;-84
2022/11/28 14:25:43;;;;;;;9.03;8.13;;;;;;;;;;4969176;28;20285;-82
2022/11/28 14:28:18;;;;;;;8.03;7.20;;;;;;;;;;4997955;28;20698;-84
2022/11/28 14:30:52;;;;;;;9.47;8.37;;;;;;;;;;4983625;28;20232;-82
2022/11/28 14:33:20;;;;;;;8.37;7.60;;;;;;;;;;5007049;28;20224;-83
2022/11/28 14:35:49;;;;;;;10.00;8.37;;;;;;;;;;4996186;28;20233;-83
2022/11/28 14:38:34;;;;;;;8.50;7.60;;;;;;;;;;5009333;28;20224;-83
2022/11/28 14:41:14;;;;;;;9.17;8.13;;;;;;;;;;5006900;28;20713;-83
2022/11/28 14:43:45;;;;;;;8.17;7.47;;;;;;;;;;4985231;28;20225;-83
2022/11/28 14:46:18;;;;;;;8.50;7.70;;;;;;;;;;5019911;28;20221;-81
2022/11/28 14:48:59;;;;;;;8.80;7.90;;;;;;;;;;4981809;28;20236;-83
2022/11/28 14:51:43;;;;;;;8.50;7.63;;;;;;;;;;4979529;28;20709;-84
2022/11/28 14:54:24;;;;;;;8.07;7.30;;;;;;;;;;5002207;28;20224;-83
2022/11/28 14:56:51;;;;;;;8.73;7.80;;;;;;;;;;5002429;28;20722;-81
2022/11/28 14:59:19;;;;;;;10.03;8.57;;;;;;;;;;5012040;28;20226;-83
2022/11/28 15:02:11;;;;;;;8.47;7.30;;;;;;;;;;5010736;28;20245;-83
2022/11/28 15:04:43;;;;;;;10.07;8.33;;;;;;;;;;4992225;28;20217;-83
2022/11/28 15:07:26;;;;;;;8.57;7.80;;;;;;;;;;4982135;28;20325;-85
2022/11/28 15:10:03;;;;;;;10.17;7.30;;;;;;;;;;4967132;28;20311;-83
2022/11/28 15:13:04;;;;;;;7.77;7.07;;;;;;;;;;4963539;28;20229;-80
2022/11/28 15:15:31;;;;;;;9.13;7.83;;;;;;;;;;4998675;28;20682;-84
2022/11/28 15:17:59;;;;;;;8.37;7.63;;;;;;;;;;4973346;28;20271;-82
2022/11/28 15:20:29;;;;;;;10.63;7.83;;;;;;;;;;4968898;28;20216;-83
2022/11/28 15:22:57;;;;;;;9.13;7.83;;;;;;;;;;4980026;28;20232;-82
2022/11/28 15:25:24;;;;;;;9.40;7.97;;;;;;;;;;4999867;28;20275;-81
2022/11/28 15:27:54;;;;;;;8.43;7.70;;;;;;;;;;5013213;28;20228;-82
2022/11/28 15:30:26;;;;;;;9.53;7.80;;;;;;;;;;4995643;28;20320;-84